Time;durP1;ratioP1;P1;durP2;ratioP2;P2;SDS_P1;SDS_P2;PMS_P1;PMS_P2;Temp;Humidity;BMP_temperature;BMP_pressure;BME280_temperature;BME280_humidity;BME280_pressure;Samples;Min_cycle;Max_cycle;Signal;HPM_P1;HPM_P2
2022/11/13 08:12:48;;;;;;;;;29.00;25.75;;;;;9.27;73.32;102027.72;3027009;22;45297;-84
2022/11/13 08:13:58;;;;;;;;;35.75;30.75;;;;;9.31;73.63;102029.44;3057883;22;46081;-85
2022/11/13 08:15:09;;;;;;;;;32.25;30.50;;;;;9.33;73.21;102027.69;3059322;22;45229;-86
2022/11/13 08:16:22;;;;;;;;;39.25;32.25;;;;;9.35;73.15;102020.66;3059106;22;46643;-85
2022/11/13 08:17:32;;;;;;;;;32.75;27.75;;;;;9.37;73.79;102021.50;3058156;22;44624;-85
2022/11/13 08:18:42;;;;;;;;;32.75;29.75;;;;;9.38;73.52;102018.03;3040839;22;46885;-84
2022/11/13 08:19:53;;;;;;;;;37.50;31.25;;;;;9.41;73.47;102014.47;3047613;22;45127;-85
2022/11/13 08:21:05;;;;;;;;;43.25;33.00;;;;;9.43;73.40;102020.63;3040994;22;46823;-84
2022/11/13 08:22:15;;;;;;;;;36.50;31.75;;;;;9.45;73.51;102022.34;3047774;22;45194;-84
2022/11/13 08:23:25;;;;;;;;;34.00;31.50;;;;;9.44;73.15;102017.97;3058899;22;45367;-85
2022/11/13 08:24:36;;;;;;;;;37.50;30.75;;;;;9.47;72.89;102018.81;3059487;22;45241;-85
2022/11/13 08:25:46;;;;;;;;;32.75;31.25;;;;;9.50;73.29;102027.56;3059039;22;45240;-84
2022/11/13 08:26:56;;;;;;;;;31.00;29.25;;;;;9.50;73.18;102019.69;3042795;22;44636;-84
2022/11/13 08:28:07;;;;;;;;;43.75;35.25;;;;;9.51;73.51;102024.03;3031031;22;47225;-84
2022/11/13 08:29:17;;;;;;;;;39.25;33.75;;;;;9.53;73.33;102014.38;3047306;22;45313;-84
2022/11/13 08:30:28;;;;;;;;;36.50;31.25;;;;;9.56;73.67;102018.75;3041830;22;48256;-84
2022/11/13 08:31:38;;;;;;;;;34.25;31.50;;;;;9.57;73.51;102016.13;3031994;22;45224;-83
2022/11/13 08:32:49;;;;;;;;;40.50;34.00;;;;;9.59;73.93;102016.09;3031581;22;48668;-83
2022/11/13 08:33:59;;;;;;;;;42.50;34.50;;;;;9.60;73.48;102009.97;3046781;22;45183;-83
2022/11/13 08:35:10;;;;;;;;;41.00;34.00;;;;;9.62;73.63;102013.47;3059207;22;46226;-84
2022/11/13 08:36:20;;;;;;;;;35.00;33.00;;;;;9.64;73.73;102011.69;3059093;22;44692;-84
2022/11/13 08:37:32;;;;;;;;;44.00;35.00;;;;;9.67;73.56;102011.66;3042071;22;46952;-84
2022/11/13 08:38:42;;;;;;;;;36.75;32.75;;;;;9.69;73.62;102009.03;3047662;22;45235;-84
2022/11/13 08:39:52;;;;;;;;;38.75;33.50;;;;;9.70;73.75;102007.28;3058860;22;54295;-84
2022/11/13 08:41:04;;;;;;;;;36.25;33.00;;;;;9.73;73.63;102009.88;3057670;22;45214;-84
2022/11/13 08:42:15;;;;;;;;;33.75;31.25;;;;;9.75;73.40;102010.72;3041578;22;48149;-84
2022/11/13 08:43:26;;;;;;;;;35.00;31.00;;;;;9.76;73.84;102012.44;3047628;22;45186;-84
2022/11/13 08:44:36;;;;;;;;;36.00;31.75;;;;;9.79;73.48;102007.19;3058717;22;45500;-84
2022/11/13 08:45:47;;;;;;;;;34.25;31.00;;;;;9.81;73.88;102008.03;3058632;22;44660;-85
2022/11/13 08:46:57;;;;;;;;;37.75;32.00;;;;;9.82;74.03;102004.53;3058931;22;45367;-85
2022/11/13 08:48:08;;;;;;;;;30.25;27.50;;;;;9.84;74.04;102001.88;3057983;22;45245;-85
2022/11/13 08:49:18;;;;;;;;;41.75;33.00;;;;;9.84;73.86;102002.75;3058412;22;46462;-86
2022/11/13 08:50:30;;;;;;;;;31.00;27.25;;;;;9.88;73.92;102004.47;3057930;22;45249;-85
2022/11/13 08:51:40;;;;;;;;;35.25;30.00;;;;;9.90;73.95;102000.06;3057969;22;45389;-85
2022/11/13 08:52:55;;;;;;;;;28.25;28.25;;;;;9.94;73.87;102000.03;3059286;22;45137;-85
2022/11/13 08:54:05;;;;;;;;;20.25;18.50;;;;;9.94;74.15;101997.41;3058834;22;46675;-85
2022/11/13 08:55:16;;;;;;;;;39.50;32.50;;;;;9.96;74.11;101993.00;3040973;22;45420;-84
2022/11/13 08:56:26;;;;;;;;;28.50;26.25;;;;;9.98;74.11;101994.72;3046403;22;47617;-84
2022/11/13 08:57:39;;;;;;;;;34.25;28.75;;;;;10.00;73.85;101992.97;3058337;22;45309;-84
2022/11/13 08:58:49;;;;;;;;;31.75;30.00;;;;;10.02;73.96;101996.44;3041933;22;47095;-84
2022/11/13 09:00:00;;;;;;;;;32.50;29.75;;;;;10.06;73.68;101996.41;3031387;22;45605;-85
2022/11/13 09:01:10;;;;;;;;;33.25;30.00;;;;;10.09;74.21;101993.75;3031072;22;47104;-84
2022/11/13 09:02:21;;;;;;;;;31.25;28.00;;;;;10.10;74.13;101982.38;3046827;22;45211;-84
2022/11/13 09:03:31;;;;;;;;;33.25;30.25;;;;;10.12;73.97;101986.69;3058389;22;46217;-84
2022/11/13 09:04:42;;;;;;;;;28.50;26.75;;;;;10.15;73.98;101984.94;3057262;22;45248;-84
2022/11/13 09:05:52;;;;;;;;;27.75;27.25;;;;;10.17;73.97;101983.16;3041966;22;46832;-85
2022/11/13 09:07:02;;;;;;;;;31.25;26.50;;;;;10.19;74.07;101984.03;3047128;22;45120;-84
2022/11/13 09:08:13;;;;;;;;;27.75;24.75;;;;;10.19;74.00;101974.38;3058200;22;45137;-84
2022/11/13 09:09:23;;;;;;;;;29.75;28.00;;;;;10.22;73.44;101976.97;3058401;22;45149;-84
2022/11/13 09:10:33;;;;;;;;;31.50;28.00;;;;;10.23;74.07;101970.81;3056377;22;45258;-85
2022/11/13 09:11:44;;;;;;;;;33.00;29.25;;;;;10.26;74.42;101966.41;3058209;22;45254;-84
2022/11/13 09:13:04;;;;;;;;;30.00;26.00;;;;;10.28;74.08;101970.78;3055813;22;47092;-83
2022/11/13 09:14:14;;;;;;;;;30.25;28.75;;;;;10.29;73.92;101964.63;3041737;22;45335;-84
2022/11/13 09:15:24;;;;;;;;;26.00;22.25;;;;;10.32;73.83;101955.84;3045641;22;46893;-84
2022/11/13 09:16:35;;;;;;;;;29.75;26.50;;;;;10.32;74.10;101954.06;3041986;22;45241;-84
2022/11/13 09:17:45;;;;;;;;;30.50;27.50;;;;;10.34;73.77;101954.94;3046360;22;45519;-85
2022/11/13 09:18:56;;;;;;;;;32.25;28.50;;;;;10.37;73.95;101950.53;3058521;22;45497;-84
2022/11/13 09:20:07;;;;;;;;;31.50;29.75;;;;;10.39;74.08;101954.00;3057830;22;46228;-85
2022/11/13 09:21:17;;;;;;;;;28.75;26.25;;;;;10.41;73.79;101952.22;3041869;22;45286;-85
2022/11/13 09:22:28;;;;;;;;;30.50;27.00;;;;;10.41;74.13;101950.47;3030156;22;47922;-84
2022/11/13 09:23:38;;;;;;;;;27.25;23.00;;;;;10.43;74.10;101946.06;3046534;22;46437;-85
2022/11/13 09:24:48;;;;;;;;;30.25;26.50;;;;;10.46;73.96;101942.53;3056915;22;47234;-84
2022/11/13 09:26:02;;;;;;;;;29.25;24.50;;;;;10.49;74.06;101946.88;3058076;22;45107;-84
2022/11/13 09:27:13;;;;;;;;;33.00;27.50;;;;;10.49;73.88;101944.25;3057991;22;45509;-84
2022/11/13 09:28:23;;;;;;;;;30.00;27.75;;;;;10.51;74.23;101946.00;3058429;22;44600;-84
2022/11/13 09:29:34;;;;;;;;;33.75;29.25;;;;;10.53;74.00;101944.22;3058448;22;45451;-84
2022/11/13 09:30:45;;;;;;;;;32.50;29.50;;;;;10.55;74.03;101941.56;3059329;22;45232;-85
2022/11/13 09:31:55;;;;;;;;;29.75;24.50;;;;;10.58;73.90;101945.03;3058718;22;45392;-85
2022/11/13 09:33:06;;;;;;;;;30.00;29.25;;;;;10.62;73.83;101947.63;3057839;22;44677;-84
2022/11/13 09:34:16;;;;;;;;;33.00;30.50;;;;;10.63;73.61;101944.97;3058354;22;45301;-85
2022/11/13 09:35:34;;;;;;;;;31.00;30.25;;;;;10.67;73.75;101948.41;3059121;22;45193;-84
2022/11/13 09:36:45;;;;;;;;;29.00;28.75;;;;;10.70;73.61;101951.00;3042528;22;47291;-85
2022/11/13 09:37:55;;;;;;;;;35.00;27.50;;;;;10.72;73.77;101953.63;3042731;22;45190;-84
2022/11/13 09:39:06;;;;;;;;;32.75;27.50;;;;;10.74;73.76;101952.69;3047394;22;46108;-84
2022/11/13 09:40:26;;;;;;;;;31.75;28.75;;;;;10.77;73.46;101957.03;3043082;22;45247;-84
2022/11/13 09:41:42;;;;;;;;;33.75;28.25;;;;;10.82;73.45;101959.59;3042977;22;47995;-84
2022/11/13 09:42:53;;;;;;;;;32.50;26.50;;;;;10.83;73.32;101966.59;3048372;22;45270;-84
2022/11/13 09:44:17;;;;;;;;;30.00;27.75;;;;;10.86;73.40;101959.56;3059470;22;46440;-84
2022/11/13 09:45:30;;;;;;;;;31.25;27.50;;;;;10.88;73.44;101960.41;3059972;22;45170;-84
2022/11/13 09:46:54;;;;;;;;;36.25;30.75;;;;;10.91;73.42;101954.22;3043187;22;47927;-84
2022/11/13 09:48:33;;;;;;;;;33.75;30.50;;;;;10.92;73.25;101953.31;3050630;22;45227;-84
2022/11/13 09:49:48;;;;;;;;;27.75;27.25;;;;;10.92;73.35;101953.31;3042497;22;47085;-84
2022/11/13 09:51:03;;;;;;;;;31.00;28.50;;;;;10.94;73.58;101955.94;3032835;22;44610;-85
2022/11/13 09:52:32;;;;;;;;;33.50;27.75;;;;;10.95;73.45;101950.66;3047777;22;46274;-84
2022/11/13 09:53:43;;;;;;;;;27.75;25.00;;;;;10.97;73.46;101950.59;3042579;22;45253;-84
2022/11/13 09:54:53;;;;;;;;;30.75;29.50;;;;;10.97;73.40;101948.84;3047392;22;45549;-84
2022/11/13 09:56:15;;;;;;;;;30.50;26.25;;;;;10.99;73.57;101954.97;3059162;22;45188;-85
2022/11/13 09:57:36;;;;;;;;;28.00;25.75;;;;;11.01;73.42;101950.53;3058594;22;45498;-84
2022/11/13 09:59:04;;;;;;;;;28.00;24.50;;;;;11.03;73.43;101945.28;3042125;22;44687;-84
2022/11/13 10:00:18;;;;;;;;;28.50;27.50;;;;;11.05;73.41;101951.38;3051564;22;45423;-84
2022/11/13 10:01:48;;;;;;;;;32.00;27.50;;;;;11.07;73.26;101943.44;3059134;22;45317;-84
2022/11/13 10:03:28;;;;;;;;;30.25;25.75;;;;;11.08;72.98;101934.66;3058903;22;45313;-85
2022/11/13 10:05:20;;;;;;;;;25.25;23.75;;;;;11.10;73.31;101935.50;3042544;22;45284;-84
2022/11/13 10:07:07;;;;;;;;;32.25;28.00;;;;;11.12;73.20;101938.97;3056858;22;45334;-85
2022/11/13 10:08:29;;;;;;;;;25.75;23.00;;;;;11.13;73.24;101930.22;3042693;22;45266;-85
2022/11/13 10:10:04;;;;;;;;;26.25;24.50;;;;;11.14;73.39;101932.81;3049608;22;45605;-85
2022/11/13 10:11:26;;;;;;;;;32.25;25.25;;;;;11.17;73.34;101939.78;3059254;22;45205;-84
2022/11/13 10:12:37;;;;;;;;;29.00;26.75;;;;;11.18;73.16;101932.75;3041545;22;46980;-84
2022/11/13 10:14:00;;;;;;;;;32.25;29.75;;;;;11.17;73.10;101931.88;3047711;22;45302;-85
2022/11/13 10:15:10;;;;;;;;;30.50;27.50;;;;;11.21;73.45;101928.31;3059033;22;45246;-85
2022/11/13 10:16:32;;;;;;;;;31.50;28.00;;;;;11.23;73.12;101934.44;3059225;22;45187;-85
2022/11/13 10:17:49;;;;;;;;;33.00;29.75;;;;;11.24;73.33;101927.38;3059117;22;46512;-84
2022/11/13 10:19:09;;;;;;;;;34.50;31.25;;;;;11.25;73.19;101931.78;3058369;22;45305;-85
2022/11/13 10:20:24;;;;;;;;;30.00;28.00;;;;;11.28;73.22;101928.22;3042241;22;46910;-85
2022/11/13 10:21:44;;;;;;;;;34.25;30.75;;;;;11.30;73.20;101934.31;3047769;22;45282;-85
2022/11/13 10:23:11;;;;;;;;;33.50;30.75;;;;;11.31;73.20;101926.38;3042372;22;47045;-85
2022/11/13 10:24:28;;;;;;;;;35.25;30.50;;;;;11.32;73.25;101924.63;3051535;22;45290;-85
2022/11/13 10:25:41;;;;;;;;;35.75;30.50;;;;;11.33;73.42;101924.59;3058743;22;46224;-85
2022/11/13 10:26:56;;;;;;;;;33.25;31.00;;;;;11.36;73.43;101918.41;3058978;22;45107;-85
2022/11/13 10:28:22;;;;;;;;;34.50;31.00;;;;;11.38;73.39;101919.28;3058706;22;45475;-85
2022/11/13 10:29:33;;;;;;;;;35.75;30.00;;;;;11.41;73.39;101916.56;3058597;22;44535;-85
2022/11/13 10:30:45;;;;;;;;;33.75;29.75;;;;;11.43;73.25;101913.94;3042372;22;47420;-86
2022/11/13 10:31:56;;;;;;;;;39.75;32.50;;;;;11.45;73.41;101917.41;3047785;22;45466;-85
2022/11/13 10:33:11;;;;;;;;;37.50;31.75;;;;;11.48;73.10;101915.56;3042758;22;46961;-86
2022/11/13 10:34:22;;;;;;;;;34.75;30.75;;;;;11.50;73.21;101914.69;3033159;22;45194;-85
2022/11/13 10:35:40;;;;;;;;;38.50;33.25;;;;;11.52;73.09;101908.50;3047253;22;47873;-85
2022/11/13 10:37:12;;;;;;;;;40.50;31.75;;;;;11.53;72.84;101910.22;3059355;22;45190;-85
2022/11/13 10:38:43;;;;;;;;;35.00;30.00;;;;;11.56;72.88;101909.28;3059681;22;45313;-86
2022/11/13 10:39:53;;;;;;;;;34.75;30.00;;;;;11.56;72.94;101912.78;3042750;22;45148;-85
2022/11/13 10:41:12;;;;;;;;;40.00;33.75;;;;;11.59;72.79;101906.59;3047004;22;45205;-85
2022/11/13 10:42:27;;;;;;;;;36.00;31.00;;;;;11.62;72.88;101908.31;3042075;22;45187;-85
2022/11/13 10:43:50;;;;;;;;;40.25;33.25;;;;;11.63;72.91;101905.63;3049084;22;45941;-86
2022/11/13 10:45:01;;;;;;;;;35.75;32.50;;;;;11.65;73.05;101903.88;3043139;22;45206;-84
2022/11/13 10:46:18;;;;;;;;;40.00;33.75;;;;;11.67;73.21;101896.81;3045339;22;45546;-85
2022/11/13 10:47:31;;;;;;;;;38.75;34.50;;;;;11.69;73.07;101902.91;3042168;22;44664;-84
2022/11/13 10:48:41;;;;;;;;;44.75;35.75;;;;;11.72;73.01;101901.09;3047589;22;45579;-84
2022/11/13 10:49:54;;;;;;;;;43.50;33.75;;;;;11.74;72.85;101904.56;3059021;22;45279;-85
2022/11/13 10:51:24;;;;;;;;;40.75;32.75;;;;;11.77;72.56;101899.25;3058699;22;46348;-84
2022/11/13 10:52:44;;;;;;;;;34.50;32.00;;;;;11.79;73.16;101895.69;3042347;22;45560;-84
2022/11/13 10:53:57;;;;;;;;;36.50;31.00;;;;;11.83;72.76;101899.13;3042240;22;48193;-84
2022/11/13 10:55:26;;;;;;;;;47.50;35.25;;;;;11.87;72.55;101886.78;3047727;22;45259;-84
2022/11/13 10:56:36;;;;;;;;;42.00;33.25;;;;;11.88;72.82;101889.38;3058539;22;45564;-84
2022/11/13 10:57:55;;;;;;;;;43.00;34.25;;;;;11.90;72.63;101886.72;3057951;22;45361;-84
2022/11/13 10:59:17;;;;;;;;;39.50;33.00;;;;;11.93;72.40;101882.25;3058533;22;45369;-84
2022/11/13 11:00:40;;;;;;;;;37.75;33.50;;;;;11.98;72.58;101889.19;3042535;22;45337;-84
2022/11/13 11:01:50;;;;;;;;;39.25;35.00;;;;;12.00;72.68;101890.88;3050309;22;45419;-85
2022/11/13 11:03:00;;;;;;;;;39.50;33.25;;;;;12.03;72.29;101882.03;3059626;22;45102;-85
2022/11/13 11:04:22;;;;;;;;;32.25;29.50;;;;;12.06;72.45;101882.00;3041935;22;46776;-85
2022/11/13 11:05:33;;;;;;;;;38.75;33.75;;;;;12.08;72.56;101874.91;3050074;22;45162;-85
2022/11/13 11:06:43;;;;;;;;;40.00;34.25;;;;;12.09;72.33;101863.50;3059119;22;45316;-84
2022/11/13 11:07:56;;;;;;;;;42.25;33.50;;;;;12.13;72.14;101862.53;3059491;22;44552;-83
2022/11/13 11:09:12;;;;;;;;;37.25;32.25;;;;;12.15;72.69;101858.09;3057541;22;48063;-83
2022/11/13 11:10:34;;;;;;;;;38.75;31.50;;;;;12.18;72.54;101849.25;3058998;22;45224;-84
2022/11/13 11:12:14;;;;;;;;;32.00;29.50;;;;;12.21;72.15;101856.25;3058898;22;46446;-84
2022/11/13 11:13:26;;;;;;;;;40.00;34.00;;;;;12.23;72.28;101847.41;3059136;22;45184;-84
2022/11/13 11:14:40;;;;;;;;;42.25;33.50;;;;;12.25;72.28;101850.88;3058140;22;45391;-84
2022/11/13 11:15:55;;;;;;;;;38.75;30.75;;;;;12.28;72.31;101849.94;3059396;22;45192;-84
2022/11/13 11:17:08;;;;;;;;;38.25;33.00;;;;;12.29;72.49;101843.78;3042800;22;48320;-84
2022/11/13 11:18:42;;;;;;;;;35.75;34.25;;;;;12.33;72.37;101844.56;3047629;22;45246;-84
2022/11/13 11:20:14;;;;;;;;;36.50;31.00;;;;;12.35;72.45;101840.97;3057713;22;48098;-84
2022/11/13 11:21:30;;;;;;;;;32.00;29.25;;;;;12.37;72.71;101839.16;3059265;22;45214;-84
2022/11/13 11:22:43;;;;;;;;;34.25;30.75;;;;;12.41;72.47;101841.75;3042558;22;47121;-84
2022/11/13 11:24:01;;;;;;;;;33.25;29.50;;;;;12.42;72.26;101836.41;3046612;22;44643;-83
2022/11/13 11:25:19;;;;;;;;;29.00;26.00;;;;;12.46;71.91;101834.59;3042904;22;48138;-84
2022/11/13 11:26:33;;;;;;;;;29.75;26.75;;;;;12.48;72.25;101820.47;3033525;22;45519;-84
2022/11/13 11:27:54;;;;;;;;;33.00;27.50;;;;;12.52;72.48;101821.25;3031738;22;47349;-84
2022/11/13 11:29:13;;;;;;;;;32.50;28.25;;;;;12.54;72.07;101819.47;3049944;22;44609;-84
2022/11/13 11:30:25;;;;;;;;;26.75;23.25;;;;;12.57;72.32;101818.50;3042733;22;46990;-83
2022/11/13 11:31:35;;;;;;;;;27.75;24.75;;;;;12.58;72.18;101820.25;3048423;22;45198;-84
2022/11/13 11:32:49;;;;;;;;;31.50;29.00;;;;;12.60;72.10;101818.44;3042521;22;47420;-84
2022/11/13 11:34:13;;;;;;;;;28.50;28.50;;;;;12.62;72.19;101815.78;3046993;22;45203;-83
2022/11/13 11:35:47;;;;;;;;;33.50;29.75;;;;;12.65;72.24;101821.84;3042566;22;47293;-84
2022/11/13 11:37:13;;;;;;;;;35.75;29.25;;;;;12.68;72.11;101812.97;3035579;22;45292;-83
2022/11/13 11:39:00;;;;;;;;;38.75;31.25;;;;;12.71;72.25;101815.56;3050781;22;46443;-84
2022/11/13 11:40:26;;;;;;;;;38.50;31.25;;;;;12.73;71.95;101804.94;3013967;22;45161;-84
2022/11/13 11:41:48;;;;;;;;;36.00;31.00;;;;;12.76;71.97;101813.66;3041455;22;46150;-83
2022/11/13 11:43:17;;;;;;;;;27.75;27.50;;;;;12.77;72.05;101810.09;3042152;22;44600;-84
2022/11/13 11:44:39;;;;;;;;;28.00;26.25;;;;;12.80;71.64;101809.16;3051500;22;45270;-85
2022/11/13 11:45:49;;;;;;;;;31.25;28.00;;;;;12.83;71.87;101802.06;3043076;22;44676;-85
2022/11/13 11:47:00;;;;;;;;;32.75;25.00;;;;;12.85;71.94;101802.00;3030879;22;48058;-84
2022/11/13 11:48:18;;;;;;;;;29.25;26.00;;;;;12.88;71.73;101803.69;3045674;22;45276;-84
2022/11/13 11:49:28;;;;;;;;;30.75;29.00;;;;;12.90;71.69;101802.75;3058528;22;45592;-83
2022/11/13 11:50:58;;;;;;;;;31.25;28.75;;;;;12.92;71.68;101800.06;3059265;22;45162;-84
2022/11/13 11:52:42;;;;;;;;;32.00;30.50;;;;;12.94;71.29;101793.84;3043344;22;47490;-84
2022/11/13 11:54:16;;;;;;;;;38.00;30.75;;;;;12.98;71.44;101797.28;3055536;22;45167;-84
2022/11/13 11:55:45;;;;;;;;;32.00;32.00;;;;;13.00;71.58;101787.56;3059099;22;46387;-84
2022/11/13 11:57:02;;;;;;;;;48.00;37.50;;;;;13.02;71.27;101790.13;3058785;22;44703;-84
2022/11/13 11:58:43;;;;;;;;;46.75;37.75;;;;;13.04;71.24;101785.69;3058304;22;45493;-84
2022/11/13 12:00:05;;;;;;;;;44.25;35.75;;;;;13.06;71.29;101775.97;3042518;22;45225;-84
2022/11/13 12:01:30;;;;;;;;;38.00;33.00;;;;;13.09;70.89;101778.50;3034133;22;47260;-84
2022/11/13 12:02:53;;;;;;;;;35.50;30.50;;;;;13.12;70.71;101777.56;3034873;22;45229;-84
2022/11/13 12:04:28;;;;;;;;;36.00;34.50;;;;;13.14;70.60;101773.09;3050097;22;46208;-84
2022/11/13 12:05:44;;;;;;;;;34.00;27.75;;;;;13.16;70.79;101773.94;3042886;22;45344;-84
2022/11/13 12:07:21;;;;;;;;;34.25;31.25;;;;;13.19;70.55;101779.13;3032346;22;47637;-84
2022/11/13 12:08:56;;;;;;;;;33.75;32.00;;;;;13.22;70.76;101773.78;3052290;22;44632;-84
2022/11/13 12:10:13;;;;;;;;;34.50;32.00;;;;;13.25;70.88;101776.34;3041152;22;46437;-84
2022/11/13 12:11:31;;;;;;;;;31.25;27.75;;;;;13.26;70.75;101775.41;3059161;22;44624;-84
2022/11/13 12:13:06;;;;;;;;;36.25;33.25;;;;;13.28;70.14;101768.31;3058538;22;46316;-83
2022/11/13 12:14:27;;;;;;;;;38.75;36.00;;;;;13.32;70.38;101774.38;3059321;22;45310;-84
2022/11/13 12:15:50;;;;;;;;;34.25;30.00;;;;;13.34;70.42;101771.69;3042509;22;47351;-84
2022/11/13 12:17:19;;;;;;;;;34.50;31.00;;;;;13.36;70.31;101775.16;3034458;22;44661;-84
2022/11/13 12:18:45;;;;;;;;;36.00;31.75;;;;;13.38;70.20;101760.16;3035249;22;47121;-84
2022/11/13 12:20:20;;;;;;;;;32.50;29.00;;;;;13.40;70.35;101750.41;3035508;22;45204;-84
2022/11/13 12:21:42;;;;;;;;;32.75;26.00;;;;;13.42;70.68;101750.34;3037103;22;47368;-84
2022/11/13 12:23:08;;;;;;;;;32.75;27.75;;;;;13.41;70.66;101751.28;3050480;22;45229;-81
2022/11/13 12:24:27;;;;;;;;;26.50;24.25;;;;;13.44;70.47;101746.75;3042045;22;46071;-83
2022/11/13 12:25:37;;;;;;;;;25.00;25.00;;;;;13.46;70.67;101749.34;3049828;22;45345;-84
2022/11/13 12:27:06;;;;;;;;;30.00;27.00;;;;;13.46;70.42;101747.56;3057329;22;45421;-83
2022/11/13 12:28:23;;;;;;;;;32.75;25.00;;;;;13.48;70.69;101748.38;3039372;22;45499;-83
2022/11/13 12:29:48;;;;;;;;;35.25;32.75;;;;;13.50;70.46;101743.09;3048611;22;46571;-84
2022/11/13 12:31:07;;;;;;;;;31.25;28.00;;;;;13.50;70.40;101736.03;3056414;22;44644;-84
2022/11/13 12:32:29;;;;;;;;;33.25;25.00;;;;;13.53;70.22;101734.19;3042058;22;48293;-84
2022/11/13 12:34:07;;;;;;;;;31.00;26.50;;;;;13.53;70.55;101734.19;3050413;22;45261;-84
2022/11/13 12:35:20;;;;;;;;;18.75;18.00;;;;;13.54;70.71;101739.44;3059165;22;45381;-84
2022/11/13 12:36:31;;;;;;;;;35.75;28.50;;;;;13.55;70.45;101738.53;3059304;22;45245;-84
2022/11/13 12:37:44;;;;;;;;;25.75;25.00;;;;;13.57;70.35;101734.09;3058902;22;45286;-84
2022/11/13 12:39:05;;;;;;;;;24.00;22.25;;;;;13.59;70.29;101739.31;3059340;22;45163;-84
2022/11/13 12:40:23;;;;;;;;;27.25;24.50;;;;;13.61;70.17;101734.84;3059218;22;46101;-84
2022/11/13 12:41:58;;;;;;;;;27.50;23.00;;;;;13.63;70.23;101733.03;3057862;22;45169;-84
2022/11/13 12:43:46;;;;;;;;;25.50;23.75;;;;;13.64;70.38;101737.41;3042453;22;48295;-84
2022/11/13 12:45:33;;;;;;;;;25.50;22.00;;;;;13.65;70.30;101733.00;3039780;22;45250;-84
2022/11/13 12:46:44;;;;;;;;;32.00;24.50;;;;;13.67;70.13;101737.31;3039477;22;46473;-84
2022/11/13 12:47:54;;;;;;;;;24.50;23.75;;;;;13.69;70.02;101732.84;3032261;22;45169;-84
2022/11/13 12:49:24;;;;;;;;;29.00;24.50;;;;;13.69;69.76;101729.34;3047524;22;46052;-84
2022/11/13 12:50:35;;;;;;;;;36.00;28.75;;;;;13.70;69.92;101731.09;3042984;22;45152;-84
2022/11/13 12:51:54;;;;;;;;;27.25;24.50;;;;;13.73;70.04;101723.91;3047043;22;46999;-84
2022/11/13 12:53:08;;;;;;;;;26.00;22.50;;;;;13.76;69.77;101722.09;3058859;22;45152;-84
2022/11/13 12:54:42;;;;;;;;;25.75;23.00;;;;;13.76;69.81;101720.31;3042680;22;48383;-84
2022/11/13 12:56:01;;;;;;;;;27.50;24.00;;;;;13.78;69.90;101717.66;3036855;22;45199;-84
2022/11/13 12:57:11;;;;;;;;;28.00;22.75;;;;;13.79;69.98;101714.06;3049012;22;45661;-84
2022/11/13 12:58:31;;;;;;;;;28.50;25.00;;;;;13.81;69.72;101717.53;3059409;22;45119;-84
2022/11/13 12:59:46;;;;;;;;;25.00;22.00;;;;;13.83;69.77;101715.69;3059062;22;46808;-84
2022/11/13 13:01:09;;;;;;;;;23.50;18.75;;;;;13.84;69.94;101712.16;3059171;22;45246;-84
2022/11/13 13:02:54;;;;;;;;;26.50;25.00;;;;;13.87;70.17;101716.47;3058983;22;46467;-84
2022/11/13 13:04:26;;;;;;;;;23.00;20.00;;;;;13.87;69.58;101713.84;3042704;22;45186;-84
2022/11/13 13:06:04;;;;;;;;;32.50;28.25;;;;;13.88;69.77;101715.59;3052940;22;45645;-84
2022/11/13 13:07:23;;;;;;;;;26.75;24.75;;;;;13.89;69.87;101706.72;3043430;22;45251;-84
2022/11/13 13:08:42;;;;;;;;;24.75;24.25;;;;;13.91;69.61;101708.41;3050182;22;45384;-84
2022/11/13 13:10:20;;;;;;;;;26.75;24.75;;;;;13.94;69.68;101700.38;3043287;22;45124;-84
2022/11/13 13:11:37;;;;;;;;;26.00;22.75;;;;;13.98;69.88;101692.34;3054292;22;45277;-84
2022/11/13 13:13:13;;;;;;;;;23.50;21.25;;;;;14.00;69.81;101695.81;3042509;22;45268;-84
2022/11/13 13:14:54;;;;;;;;;27.50;24.75;;;;;14.02;69.75;101692.22;3041803;22;45544;-84
2022/11/13 13:16:05;;;;;;;;;18.75;17.50;;;;;14.05;69.90;101694.75;3060078;22;44576;-85
2022/11/13 13:17:22;;;;;;;;;25.25;21.25;;;;;14.07;69.62;101697.34;3059603;22;45491;-84
2022/11/13 13:18:37;;;;;;;;;22.50;21.00;;;;;14.09;69.95;101694.66;3059541;22;44557;-84
2022/11/13 13:20:20;;;;;;;;;31.25;24.75;;;;;14.11;69.79;101698.09;3059538;22;46734;-84
2022/11/13 13:21:42;;;;;;;;;25.50;21.75;;;;;14.13;69.52;101691.84;3036521;22;45504;-84
2022/11/13 13:22:58;;;;;;;;;30.75;22.75;;;;;14.16;69.46;101696.19;3043162;22;47107;-84
2022/11/13 13:24:44;;;;;;;;;24.50;21.00;;;;;14.18;69.53;101695.22;3032301;22;45255;-84
2022/11/13 13:26:24;;;;;;;;;24.50;17.75;;;;;14.21;69.41;101693.38;3037835;22;48015;-84
2022/11/13 13:27:37;;;;;;;;;28.25;22.50;;;;;14.24;69.79;101693.28;3035030;22;45121;-84
2022/11/13 13:28:54;;;;;;;;;20.25;19.00;;;;;14.25;69.50;101689.72;3058306;22;47203;-84
2022/11/13 13:30:16;;;;;;;;;23.25;22.75;;;;;14.27;69.46;101687.91;3043390;22;45284;-84
2022/11/13 13:31:48;;;;;;;;;25.75;22.50;;;;;14.27;69.49;101688.75;3043186;22;48055;-84
2022/11/13 13:33:20;;;;;;;;;26.00;20.75;;;;;14.28;69.16;101679.03;3053345;22;44679;-84
2022/11/13 13:34:33;;;;;;;;;21.75;19.00;;;;;14.29;69.12;101678.13;3059808;22;46394;-84
2022/11/13 13:36:14;;;;;;;;;24.25;20.00;;;;;14.31;69.15;101673.66;3043487;22;44759;-84
2022/11/13 13:37:30;;;;;;;;;17.00;16.25;;;;;14.33;69.02;101671.81;3055139;22;45727;-84
2022/11/13 13:38:49;;;;;;;;;20.50;16.25;;;;;14.34;69.09;101662.97;3060022;22;44565;-84
2022/11/13 13:40:18;;;;;;;;;20.75;16.00;;;;;14.37;69.21;101659.38;3043194;22;46373;-84
2022/11/13 13:41:54;;;;;;;;;18.25;15.25;;;;;14.38;69.32;101663.72;3052116;22;45202;-84
2022/11/13 13:43:25;;;;;;;;;20.00;17.25;;;;;14.39;69.08;101657.53;3059603;22;46199;-84
2022/11/13 13:45:06;;;;;;;;;22.25;17.50;;;;;14.39;69.05;101661.03;3060037;22;45348;-84
2022/11/13 13:46:29;;;;;;;;;19.75;19.25;;;;;14.39;69.38;101655.75;3059872;22;45270;-84
2022/11/13 13:47:45;;;;;;;;;22.75;20.50;;;;;14.39;69.17;101653.09;3060173;22;45210;-84
2022/11/13 13:49:03;;;;;;;;;19.75;18.25;;;;;14.40;69.24;101660.09;3059694;22;46301;-84
2022/11/13 13:50:18;;;;;;;;;19.25;19.00;;;;;14.40;69.24;101652.19;3043188;22;44644;-84
2022/11/13 13:51:50;;;;;;;;;21.00;17.00;;;;;14.40;69.12;101649.53;3033203;22;47015;-84
2022/11/13 13:53:01;;;;;;;;;21.25;18.00;;;;;14.41;69.12;101642.47;3053445;22;45174;-84
2022/11/13 13:54:17;;;;;;;;;22.50;19.50;;;;;14.43;69.16;101645.91;3059665;22;45234;-84
2022/11/13 13:55:32;;;;;;;;;23.75;21.75;;;;;14.43;69.28;101642.41;3058323;22;45319;-84
2022/11/13 13:56:43;;;;;;;;;22.25;20.25;;;;;14.42;68.92;101638.06;3059239;22;46026;-84
2022/11/13 13:57:54;;;;;;;;;18.75;18.75;;;;;14.44;69.00;101638.84;3059456;22;45170;-84
2022/11/13 13:59:05;;;;;;;;;21.50;20.00;;;;;14.45;69.06;101636.16;3059616;22;45291;-84
2022/11/13 14:00:18;;;;;;;;;21.50;19.25;;;;;14.46;69.08;101637.00;3059875;22;44595;-85
2022/11/13 14:01:31;;;;;;;;;23.75;21.25;;;;;14.47;69.25;101634.31;3059524;22;46342;-84
2022/11/13 14:02:50;;;;;;;;;17.75;16.25;;;;;14.48;68.99;101632.53;3059779;22;45160;-84
2022/11/13 14:04:34;;;;;;;;;19.25;17.75;;;;;14.48;69.22;101624.59;3059537;22;45209;-84
2022/11/13 14:05:44;;;;;;;;;22.25;21.25;;;;;14.49;69.05;101631.63;3013142;22;45224;-84
2022/11/13 14:06:57;;;;;;;;;19.75;17.25;;;;;14.49;69.23;101628.97;3037668;22;47117;-84
2022/11/13 14:08:19;;;;;;;;;17.00;16.75;;;;;14.50;69.23;101628.03;3048636;22;45208;-84
2022/11/13 14:09:30;;;;;;;;;19.25;18.75;;;;;14.49;69.10;101626.34;3043147;22;48185;-85
2022/11/13 14:10:40;;;;;;;;;27.50;21.50;;;;;14.50;69.15;101630.69;3048169;22;45307;-84